Time;durP1;ratioP1;P1;durP2;ratioP2;P2;SDS_P1;SDS_P2;PMS_P1;PMS_P2;Temp;Humidity;BMP_temperature;BMP_pressure;BME280_temperature;BME280_humidity;BME280_pressure;Samples;Min_cycle;Max_cycle;Signal;HPM_P1;HPM_P2
2022/05/28 00:01:48;;;;;;;7.70;2.03;;;11.70;1.00;;;;;;5052923;28;20179;-73
2022/05/28 00:04:15;;;;;;;6.57;1.93;;;11.70;12.60;;;;;;5052935;28;20168;-73
2022/05/28 00:06:41;;;;;;;8.53;1.97;;;11.70;1.00;;;;;;5052911;28;20225;-74
2022/05/28 00:09:07;;;;;;;8.03;1.97;;;11.70;99.90;;;;;;5051492;28;20226;-73
2022/05/28 00:11:35;;;;;;;10.03;2.17;;;11.70;1.00;;;;;;5052732;28;20167;-71
2022/05/28 00:14:01;;;;;;;8.47;1.80;;;11.70;99.90;;;;;;5052862;28;20207;-72
2022/05/28 00:16:27;;;;;;;8.63;1.90;;;11.60;1.00;;;;;;5053283;28;20591;-72
2022/05/28 00:18:53;;;;;;;7.93;2.20;;;11.60;5.90;;;;;;5052671;28;20215;-72
2022/05/28 00:21:20;;;;;;;9.17;2.20;;;11.60;99.90;;;;;;5052749;28;20541;-72
2022/05/28 00:23:45;;;;;;;8.10;2.00;;;11.60;58.10;;;;;;5051444;28;20646;-72
2022/05/28 00:26:12;;;;;;;8.20;2.23;;;11.70;99.90;;;;;;5052732;28;20168;-72
2022/05/28 00:28:38;;;;;;;6.83;2.10;;;11.70;1.00;;;;;;5052561;28;20211;-72
2022/05/28 00:31:04;;;;;;;6.63;2.10;;;11.60;99.90;;;;;;5051191;28;20278;-72
2022/05/28 00:33:30;;;;;;;10.73;2.10;;;11.70;1.00;;;;;;5051122;28;20172;-72
2022/05/28 00:35:57;;;;;;;10.67;2.30;;;11.60;1.00;;;;;;5051152;28;20203;-72
2022/05/28 00:38:24;;;;;;;6.43;1.80;;;11.70;1.00;;;;;;5052409;28;20541;-72
2022/05/28 00:40:54;;;;;;;8.13;1.70;;;11.70;65.40;;;;;;5052787;28;20175;-72
2022/05/28 00:43:20;;;;;;;7.60;2.30;;;11.70;1.00;;;;;;5055153;28;20172;-72
2022/05/28 00:45:48;;;;;;;10.90;2.10;;;11.70;1.00;;;;;;5056742;28;20172;-71
2022/05/28 00:48:20;;;;;;;7.37;1.90;;;11.70;99.90;;;;;;5056481;28;20286;-72
2022/05/28 00:50:46;;;;;;;13.80;2.40;;;11.60;1.00;;;;;;5056375;28;20159;-72
2022/05/28 00:53:12;;;;;;;5.23;1.80;;;11.70;1.00;;;;;;5056584;28;20534;-72
2022/05/28 00:55:38;;;;;;;9.03;2.40;;;11.60;1.00;;;;;;5056753;28;20168;-72
2022/05/28 00:58:06;;;;;;;5.67;1.53;;;11.60;99.90;;;;;;5056209;28;20172;-72
2022/05/28 01:00:33;;;;;;;7.43;2.20;;;11.70;4.00;;;;;;5056161;28;20779;-72
2022/05/28 01:03:32;;;;;;;11.67;2.27;;;11.70;1.00;;;;;;5054868;28;20176;-72
2022/05/28 01:06:13;;;;;;;7.47;2.00;;;11.70;1.00;;;;;;5056241;28;20164;-72
2022/05/28 01:08:52;;;;;;;7.13;1.83;;;11.70;53.90;;;;;;5055853;28;20211;-72
2022/05/28 01:11:26;;;;;;;12.37;2.40;;;11.70;55.30;;;;;;5055955;28;20170;-72
2022/05/28 01:14:11;;;;;;;7.23;2.00;;;11.70;1.00;;;;;;5056039;28;20618;-72
2022/05/28 01:16:53;;;;;;;7.47;2.03;;;11.70;42.60;;;;;;5054695;28;20159;-72
2022/05/28 01:19:43;;;;;;;5.27;1.73;;;11.80;76.70;;;;;;5055818;28;20199;-73
2022/05/28 01:22:30;;;;;;;6.20;1.70;;;11.80;1.00;;;;;;5055770;28;20237;-72
2022/05/28 01:25:04;;;;;;;5.43;1.60;;;11.80;1.00;;;;;;5054506;28;20178;-72
2022/05/28 01:27:36;;;;;;;10.50;1.93;;;11.80;99.90;;;;;;5055866;28;20223;-71
2022/05/28 01:30:07;;;;;;;10.37;2.43;;;11.90;99.90;;;;;;5054366;28;20278;-72
2022/05/28 01:32:34;;;;;;;7.33;1.93;;;11.90;1.00;;;;;;5055901;28;20210;-72
2022/05/28 01:35:04;;;;;;;8.03;1.73;;;11.80;99.90;;;;;;5055754;28;20649;-72
2022/05/28 01:37:31;;;;;;;8.40;2.37;;;11.80;16.90;;;;;;5055703;28;20641;-72
2022/05/28 01:39:58;;;;;;;8.77;2.23;;;11.80;99.90;;;;;;5055662;28;20218;-72
2022/05/28 01:42:25;;;;;;;9.80;2.07;;;11.80;99.90;;;;;;5054111;28;20219;-72
2022/05/28 01:44:52;;;;;;;8.10;2.23;;;11.80;1.00;;;;;;5055389;28;20182;-73
2022/05/28 01:47:19;;;;;;;7.53;1.93;;;11.80;1.00;;;;;;5055203;28;20257;-72
2022/05/28 01:49:46;;;;;;;9.50;2.50;;;11.80;1.00;;;;;;5055460;28;20229;-72
2022/05/28 01:52:14;;;;;;;11.67;2.67;;;11.70;1.00;;;;;;5055260;28;20254;-72
2022/05/28 01:54:43;;;;;;;15.93;3.20;;;11.70;1.00;;;;;;5054241;28;20164;-73
2022/05/28 01:57:11;;;;;;;7.70;2.57;;;11.70;1.00;;;;;;5053867;28;20201;-72
2022/05/28 01:59:38;;;;;;;12.07;2.83;;;11.70;1.00;;;;;;5055089;28;20191;-72
2022/05/28 02:02:06;;;;;;;8.37;2.30;;;11.60;99.90;;;;;;5055041;28;20261;-72
2022/05/28 02:04:35;;;;;;;13.47;2.23;;;11.60;99.90;;;;;;5055262;28;20175;-73
2022/05/28 02:07:02;;;;;;;9.03;2.30;;;11.60;99.90;;;;;;5054796;28;20211;-72
2022/05/28 02:09:59;;;;;;;10.97;2.73;;;11.60;99.90;;;;;;5055537;28;20204;-73
2022/05/28 02:12:45;;;;;;;10.77;2.43;;;11.50;12.40;;;;;;5054285;28;20184;-72
2022/05/28 02:15:47;;;;;;;14.20;3.00;;;11.50;1.00;;;;;;5053564;28;20221;-72
2022/05/28 02:18:30;;;;;;;8.43;2.63;;;11.50;99.90;;;;;;5055015;28;20163;-73
2022/05/28 02:21:05;;;;;;;11.47;2.47;;;11.50;99.90;;;;;;5055007;28;20209;-72
2022/05/28 02:23:49;;;;;;;9.87;2.30;;;11.50;1.90;;;;;;5054743;28;20251;-72
2022/05/28 02:26:43;;;;;;;12.07;3.10;;;11.40;1.00;;;;;;5054714;28;20164;-72
2022/05/28 02:29:09;;;;;;;9.23;2.90;;;11.40;55.90;;;;;;5054769;28;20206;-72
2022/05/28 02:31:34;;;;;;;7.77;2.37;;;11.40;1.00;;;;;;5054515;28;20164;-72
2022/05/28 02:34:01;;;;;;;14.97;2.93;;;11.40;99.90;;;;;;5054397;28;20172;-72
2022/05/28 02:36:28;;;;;;;12.13;2.83;;;11.30;1.00;;;;;;5053333;28;20655;-72
2022/05/28 02:38:54;;;;;;;5.27;1.83;;;11.30;1.00;;;;;;5054421;28;20669;-72
2022/05/28 02:41:20;;;;;;;9.13;2.50;;;11.30;1.00;;;;;;5054376;28;20186;-72
2022/05/28 02:43:46;;;;;;;11.80;2.50;;;11.30;1.00;;;;;;5054218;28;20254;-72
2022/05/28 02:46:12;;;;;;;9.83;2.67;;;11.20;99.90;;;;;;5054163;28;20247;-72
2022/05/28 02:48:39;;;;;;;8.23;2.30;;;11.20;99.90;;;;;;5054078;28;20305;-72
2022/05/28 02:51:12;;;;;;;14.93;2.97;;;11.20;30.00;;;;;;5053221;28;20187;-72
2022/05/28 02:53:39;;;;;;;11.63;2.60;;;11.20;1.00;;;;;;5054368;28;20159;-72
2022/05/28 02:56:06;;;;;;;12.13;3.00;;;11.20;99.90;;;;;;5053967;28;20167;-72
2022/05/28 02:58:31;;;;;;;11.40;4.03;;;11.20;99.90;;;;;;5054123;28;20530;-72
2022/05/28 03:00:57;;;;;;;11.50;2.37;;;11.20;1.00;;;;;;5053928;28;20255;-72
2022/05/28 03:03:23;;;;;;;7.40;2.20;;;11.10;1.00;;;;;;5053862;28;20304;-72
2022/05/28 03:05:50;;;;;;;9.73;2.67;;;11.20;99.90;;;;;;5052438;28;20681;-72
2022/05/28 03:08:17;;;;;;;5.73;2.10;;;11.10;16.00;;;;;;5053730;28;20776;-72
2022/05/28 03:10:43;;;;;;;9.63;2.73;;;11.10;99.90;;;;;;5052520;28;20164;-72
2022/05/28 03:13:09;;;;;;;9.50;2.47;;;11.10;99.90;;;;;;5053750;28;20194;-72
2022/05/28 03:15:35;;;;;;;7.50;3.00;;;11.10;99.90;;;;;;5053996;28;20167;-72
2022/05/28 03:18:00;;;;;;;10.23;2.63;;;11.00;99.90;;;;;;5052515;28;20641;-72
2022/05/28 03:20:27;;;;;;;7.43;2.43;;;11.00;1.00;;;;;;5052407;28;20204;-73
2022/05/28 03:22:53;;;;;;;8.30;2.40;;;11.00;1.00;;;;;;5054038;28;20182;-72
2022/05/28 03:25:18;;;;;;;13.00;3.37;;;11.00;1.00;;;;;;5052412;28;20172;-72
2022/05/28 03:27:44;;;;;;;14.57;3.30;;;11.00;41.50;;;;;;5052100;28;20226;-72
2022/05/28 03:30:10;;;;;;;11.63;3.50;;;11.00;65.50;;;;;;5053355;28;20195;-72
2022/05/28 03:32:36;;;;;;;8.87;2.70;;;11.00;98.40;;;;;;5052090;28;20175;-72
2022/05/28 03:35:02;;;;;;;8.70;3.20;;;11.00;99.90;;;;;;5053517;28;20167;-72
2022/05/28 03:37:27;;;;;;;9.90;3.10;;;11.00;99.90;;;;;;5053272;28;20585;-72
2022/05/28 03:39:53;;;;;;;13.67;3.90;;;11.10;99.90;;;;;;5053536;28;20183;-72
2022/05/28 03:42:19;;;;;;;12.03;3.30;;;11.10;99.90;;;;;;5051939;28;20175;-72
2022/05/28 03:44:44;;;;;;;14.87;4.00;;;11.10;99.90;;;;;;5053184;28;20221;-72
2022/05/28 03:47:10;;;;;;;16.53;4.20;;;11.10;99.90;;;;;;5053308;28;20202;-72
2022/05/28 03:49:38;;;;;;;12.50;4.00;;;11.20;99.90;;;;;;5053329;28;20184;-72
2022/05/28 03:52:04;;;;;;;16.13;4.20;;;11.20;99.90;;;;;;5053137;28;20225;-72
2022/05/28 03:54:30;;;;;;;10.17;3.53;;;11.20;99.90;;;;;;5053144;28;20167;-72
2022/05/28 03:57:00;;;;;;;9.37;3.17;;;11.20;99.90;;;;;;5051722;28;20715;-72
2022/05/28 03:59:25;;;;;;;12.67;3.63;;;11.30;99.90;;;;;;5051704;28;20276;-72
2022/05/28 04:01:53;;;;;;;13.97;3.30;;;11.30;99.90;;;;;;5052945;28;20612;-72
2022/05/28 04:04:19;;;;;;;17.77;3.77;;;11.30;99.90;;;;;;5053052;28;20199;-72
2022/05/28 04:06:45;;;;;;;18.90;4.13;;;11.30;99.90;;;;;;5053404;28;20219;-72
2022/05/28 04:09:11;;;;;;;21.73;4.17;;;11.30;99.90;;;;;;5052716;28;20689;-73
2022/05/28 04:11:37;;;;;;;13.47;3.93;;;11.30;99.90;;;;;;5052972;28;20273;-72
2022/05/28 04:14:03;;;;;;;14.33;3.70;;;11.30;99.90;;;;;;5051613;28;20188;-72
2022/05/28 04:16:29;;;;;;;15.23;4.40;;;11.30;99.90;;;;;;5053059;28;20544;-72
2022/05/28 04:18:55;;;;;;;15.53;3.50;;;11.30;99.90;;;;;;5057250;28;20261;-72
2022/05/28 04:21:20;;;;;;;11.73;3.87;;;11.40;99.90;;;;;;5056934;28;20193;-72
2022/05/28 04:23:46;;;;;;;13.00;3.80;;;11.30;99.90;;;;;;5055637;28;20554;-72
2022/05/28 04:26:11;;;;;;;10.03;3.20;;;11.30;99.90;;;;;;5056752;28;20172;-72
2022/05/28 04:28:37;;;;;;;16.50;3.23;;;11.30;99.90;;;;;;5055516;28;20202;-72
2022/05/28 04:31:02;;;;;;;14.03;3.80;;;11.30;99.90;;;;;;5057006;28;20222;-73
2022/05/28 04:33:28;;;;;;;9.93;3.03;;;11.30;99.90;;;;;;5056661;28;20199;-72
2022/05/28 04:35:53;;;;;;;14.90;3.60;;;11.30;99.90;;;;;;5056648;28;20164;-72
2022/05/28 04:38:19;;;;;;;14.20;3.20;;;11.30;99.90;;;;;;5056546;28;20167;-72
2022/05/28 04:40:45;;;;;;;9.00;3.20;;;11.30;99.90;;;;;;5056510;28;20176;-72
2022/05/28 04:43:10;;;;;;;14.70;3.50;;;11.30;99.90;;;;;;5057064;28;20258;-73
2022/05/28 04:45:36;;;;;;;10.70;2.90;;;11.30;99.90;;;;;;5055208;28;20171;-73
2022/05/28 04:48:02;;;;;;;8.40;3.07;;;11.30;99.90;;;;;;5056616;28;20294;-72
2022/05/28 04:50:28;;;;;;;8.13;2.50;;;11.40;99.90;;;;;;5056427;28;20211;-74
2022/05/28 04:52:53;;;;;;;10.97;2.73;;;11.30;99.90;;;;;;5056413;28;20723;-72
2022/05/28 04:55:19;;;;;;;8.97;2.63;;;11.40;99.90;;;;;;5055135;28;20171;-73
2022/05/28 04:57:44;;;;;;;11.13;3.03;;;11.40;99.90;;;;;;5056353;28;20548;-72
2022/05/28 05:00:17;;;;;;;9.27;2.67;;;11.40;99.90;;;;;;5056280;28;20200;-73
2022/05/28 05:02:42;;;;;;;13.13;3.77;;;11.40;99.90;;;;;;5056566;28;20182;-72
2022/05/28 05:05:08;;;;;;;9.47;3.60;;;11.30;99.90;;;;;;5056182;28;20167;-73
2022/05/28 05:07:34;;;;;;;12.93;2.87;;;11.40;99.90;;;;;;5054839;28;20200;-72
2022/05/28 05:10:00;;;;;;;16.70;2.83;;;11.40;99.90;;;;;;5055898;28;20207;-72
2022/05/28 05:12:25;;;;;;;11.20;2.87;;;11.40;99.90;;;;;;5056120;28;20246;-73
2022/05/28 05:14:51;;;;;;;9.27;2.80;;;11.40;99.90;;;;;;5056367;28;20179;-73
2022/05/28 05:17:17;;;;;;;10.77;3.10;;;11.50;99.90;;;;;;5054793;28;20188;-73
2022/05/28 05:19:42;;;;;;;10.00;3.00;;;11.40;99.90;;;;;;5055869;28;20199;-72
2022/05/28 05:22:08;;;;;;;7.23;2.60;;;11.40;99.90;;;;;;5056223;28;20668;-73
2022/05/28 05:24:33;;;;;;;11.00;3.37;;;11.50;99.90;;;;;;5055974;28;20210;-72
2022/05/28 05:27:02;;;;;;;13.97;3.60;;;11.50;99.90;;;;;;5054492;28;20257;-72
2022/05/28 05:29:28;;;;;;;9.10;3.17;;;11.50;99.90;;;;;;5054394;28;20689;-73
2022/05/28 05:31:54;;;;;;;14.47;3.13;;;11.50;99.90;;;;;;5054458;28;20183;-72
2022/05/28 05:34:20;;;;;;;12.43;3.33;;;11.60;99.90;;;;;;5054353;28;20171;-72
2022/05/28 05:36:45;;;;;;;12.93;2.67;;;11.60;99.90;;;;;;5055773;28;20187;-72
2022/05/28 05:39:11;;;;;;;8.50;2.60;;;11.60;99.90;;;;;;5055803;28;20199;-73
2022/05/28 05:41:43;;;;;;;9.57;3.07;;;11.60;99.90;;;;;;5055651;28;20234;-72
2022/05/28 05:44:09;;;;;;;12.77;2.90;;;11.70;99.90;;;;;;5054217;28;20182;-72
2022/05/28 05:46:38;;;;;;;9.83;2.80;;;11.70;99.90;;;;;;5054148;28;20207;-72
2022/05/28 05:49:04;;;;;;;8.10;2.60;;;11.80;99.90;;;;;;5055360;28;20204;-72
2022/05/28 05:51:30;;;;;;;12.73;3.67;;;11.80;99.90;;;;;;5055600;28;20633;-72
2022/05/28 05:53:55;;;;;;;10.07;3.20;;;11.80;99.90;;;;;;5055333;28;20549;-72
2022/05/28 05:56:21;;;;;;;10.17;2.50;;;11.90;99.90;;;;;;5055258;28;20721;-73
2022/05/28 05:58:46;;;;;;;10.70;2.63;;;12.00;99.90;;;;;;5055155;28;20377;-72
2022/05/28 06:01:12;;;;;;;11.43;2.73;;;12.00;99.90;;;;;;5055398;28;20179;-73
2022/05/28 06:03:44;;;;;;;9.30;2.03;;;12.00;99.90;;;;;;5053870;28;20218;-72
2022/05/28 06:06:14;;;;;;;10.50;1.97;;;12.00;99.90;;;;;;5055469;28;20152;-73
2022/05/28 06:08:39;;;;;;;5.20;1.90;;;12.10;99.90;;;;;;5054929;28;20213;-73
2022/05/28 06:11:05;;;;;;;7.97;2.03;;;12.10;99.90;;;;;;5055258;28;20630;-72
2022/05/28 06:13:31;;;;;;;9.03;1.97;;;12.20;99.90;;;;;;5055304;28;20171;-72
2022/05/28 06:15:57;;;;;;;8.27;1.97;;;12.20;99.90;;;;;;5055820;28;20275;-73
2022/05/28 06:18:22;;;;;;;10.10;2.20;;;12.30;99.90;;;;;;5054828;28;20215;-73
2022/05/28 06:20:49;;;;;;;9.77;1.90;;;12.30;84.40;;;;;;5055086;28;20175;-73
2022/05/28 06:23:16;;;;;;;7.97;1.80;;;12.40;85.20;;;;;;5055056;28;20293;-73
2022/05/28 06:25:42;;;;;;;5.67;2.10;;;12.40;19.40;;;;;;5054942;28;20195;-72
2022/05/28 06:28:08;;;;;;;9.20;1.67;;;12.50;99.90;;;;;;5054534;28;20209;-72
2022/05/28 06:30:34;;;;;;;5.33;2.20;;;12.50;71.60;;;;;;5053364;28;20203;-72
2022/05/28 06:32:59;;;;;;;7.63;1.83;;;12.60;1.00;;;;;;5054758;28;20172;-72
2022/05/28 06:35:25;;;;;;;7.60;1.53;;;12.60;99.90;;;;;;5053193;28;20206;-72
2022/05/28 06:37:52;;;;;;;10.30;2.07;;;12.60;1.00;;;;;;5054405;28;20183;-73
2022/05/28 06:40:18;;;;;;;5.80;1.63;;;12.70;1.00;;;;;;5053938;28;20201;-73
2022/05/28 06:42:45;;;;;;;11.10;1.97;;;12.80;1.00;;;;;;5053059;28;20270;-72
2022/05/28 06:45:14;;;;;;;6.83;1.77;;;12.90;1.00;;;;;;5054365;28;20171;-72
2022/05/28 06:47:41;;;;;;;10.30;1.60;;;13.00;1.00;;;;;;5054439;28;20195;-72
2022/05/28 06:52:51;;;;;;;6.30;1.63;;;13.20;1.00;;;;;;5054656;28;20625;-72
2022/05/28 06:55:16;;;;;;;10.20;1.83;;;13.30;1.00;;;;;;5054053;28;20187;-73
2022/05/28 06:57:42;;;;;;;6.13;1.33;;;13.40;99.90;;;;;;5052731;28;20180;-72
2022/05/28 07:00:08;;;;;;;8.10;1.77;;;13.50;99.90;;;;;;5053975;28;20325;-72
2022/05/28 07:02:33;;;;;;;5.77;1.43;;;13.50;99.90;;;;;;5053194;28;20190;-73
2022/05/28 07:04:59;;;;;;;6.67;1.27;;;13.60;99.90;;;;;;5052610;28;20172;-73
2022/05/28 07:07:24;;;;;;;3.80;1.27;;;13.70;99.90;;;;;;5052621;28;20204;-72
2022/05/28 07:09:50;;;;;;;6.83;1.27;;;13.80;99.90;;;;;;5052316;28;20214;-72
2022/05/28 07:12:15;;;;;;;5.03;1.07;;;13.90;1.00;;;;;;5053790;28;20166;-72
2022/05/28 07:14:41;;;;;;;5.97;1.10;;;13.90;1.00;;;;;;5053673;28;20203;-72
2022/05/28 07:17:06;;;;;;;6.70;1.53;;;13.90;99.90;;;;;;5052451;28;20229;-74
2022/05/28 07:19:32;;;;;;;4.17;1.20;;;14.10;23.40;;;;;;5052211;28;20196;-73
2022/05/28 07:21:57;;;;;;;5.53;1.03;;;14.10;1.00;;;;;;5053837;28;20175;-73
2022/05/28 07:24:23;;;;;;;6.73;1.57;;;14.20;99.90;;;;;;5053752;28;20204;-73
2022/05/28 07:26:52;;;;;;;5.87;1.13;;;14.20;99.90;;;;;;5053469;28;20191;-74
2022/05/28 07:29:18;;;;;;;4.90;0.90;;;14.20;99.90;;;;;;5052169;28;20286;-73
2022/05/28 07:31:45;;;;;;;7.50;1.43;;;14.30;1.00;;;;;;5054242;28;20494;-73
2022/05/28 07:34:11;;;;;;;5.10;2.00;;;14.30;1.00;;;;;;5052154;28;20540;-72
2022/05/28 07:36:37;;;;;;;6.03;0.93;;;14.30;99.90;;;;;;5053405;28;20215;-73
2022/05/28 07:39:03;;;;;;;6.83;1.10;;;14.30;62.10;;;;;;5053263;28;20196;-73
2022/05/28 07:41:29;;;;;;;4.27;1.67;;;14.30;99.90;;;;;;5053314;28;20168;-73
2022/05/28 07:43:56;;;;;;;6.13;1.37;;;14.40;99.90;;;;;;5053749;28;20540;-73
2022/05/28 07:46:24;;;;;;;2.43;0.90;;;14.40;1.00;;;;;;5053410;28;20179;-73
2022/05/28 07:48:50;;;;;;;6.17;1.00;;;14.40;99.90;;;;;;5053350;28;20211;-73
2022/05/28 07:51:19;;;;;;;8.30;1.17;;;14.40;99.90;;;;;;5052916;28;20183;-73
2022/05/28 07:53:45;;;;;;;4.53;1.20;;;14.30;99.90;;;;;;5051970;28;20180;-73
2022/05/28 07:56:11;;;;;;;7.63;1.40;;;14.30;99.90;;;;;;5052322;28;20183;-74
2022/05/28 07:58:37;;;;;;;6.77;1.53;;;14.30;99.90;;;;;;5052718;28;20195;-73
2022/05/28 08:01:04;;;;;;;6.13;1.07;;;14.30;1.00;;;;;;5053221;28;20293;-74
2022/05/28 08:03:30;;;;;;;4.63;1.33;;;14.50;99.90;;;;;;5053169;28;20225;-75
2022/05/28 08:05:56;;;;;;;7.43;1.10;;;14.60;99.90;;;;;;5053298;28;20178;-74
2022/05/28 08:08:24;;;;;;;4.30;1.20;;;14.70;99.90;;;;;;5052894;28;20231;-75
2022/05/28 08:10:53;;;;;;;7.30;1.70;;;14.70;99.90;;;;;;5067797;22;20246;-93
2022/05/28 08:13:24;;;;;;;9.10;1.10;;;14.70;97.10;;;;;;5050239;28;20202;-95
2022/05/28 08:15:53;;;;;;;4.10;0.97;;;14.70;1.00;;;;;;5055159;28;20203;-92
2022/05/28 08:18:24;;;;;;;4.13;0.90;;;14.60;1.00;;;;;;5052189;28;20160;-94
2022/05/28 08:23:41;;;;;;;3.10;1.23;;;14.50;99.90;;;;;;5073359;28;20247;-94
2022/05/28 08:26:08;;;;;;;4.30;1.20;;;14.50;1.00;;;;;;5073724;23;20218;-75
2022/05/28 08:28:36;;;;;;;6.77;1.10;;;14.50;1.00;;;;;;5071350;28;20727;-77
2022/05/28 08:31:02;;;;;;;4.40;1.00;;;14.60;1.00;;;;;;5071427;28;20613;-77
2022/05/28 08:33:28;;;;;;;5.47;1.10;;;14.70;1.00;;;;;;5072554;28;20245;-77
2022/05/28 08:35:55;;;;;;;6.80;1.10;;;14.60;1.00;;;;;;5072937;28;20167;-77
2022/05/28 08:38:22;;;;;;;3.67;0.90;;;14.60;1.00;;;;;;5071243;28;20171;-77
2022/05/28 08:41:24;;;;;;;7.03;1.20;;;14.40;99.90;;;;;;5072460;28;20229;-77
2022/05/28 08:44:12;;;;;;;7.90;1.17;;;14.40;1.00;;;;;;5071756;28;20520;-78
2022/05/28 08:46:38;;;;;;;5.23;1.30;;;14.50;1.00;;;;;;5080890;28;20214;-78
2022/05/28 08:49:08;;;;;;;3.13;1.20;;;14.60;1.00;;;;;;5074509;28;20672;-77
2022/05/28 08:51:44;;;;;;;5.03;0.80;;;14.70;1.00;;;;;;5071541;28;20332;-77
2022/05/28 08:54:34;;;;;;;2.37;0.83;;;14.80;99.90;;;;;;5072626;28;20279;-77
2022/05/28 08:57:08;;;;;;;6.30;1.03;;;14.90;1.00;;;;;;5072851;28;20175;-77
2022/05/28 08:59:44;;;;;;;4.27;1.13;;;15.10;99.90;;;;;;5072936;28;20677;-77
2022/05/28 09:02:32;;;;;;;6.07;1.30;;;15.20;99.90;;;;;;5072139;28;20182;-77
2022/05/28 09:05:00;;;;;;;2.73;0.77;;;15.20;1.00;;;;;;5076201;28;20320;-77
2022/05/28 09:07:25;;;;;;;6.00;1.17;;;15.10;1.00;;;;;;5076208;28;20593;-77
2022/05/28 09:09:54;;;;;;;5.03;1.00;;;15.10;99.90;;;;;;5076170;28;20246;-77
2022/05/28 09:12:27;;;;;;;4.77;1.20;;;15.00;1.00;;;;;;5075889;28;20174;-76
2022/05/28 09:14:53;;;;;;;3.83;0.93;;;14.80;1.00;;;;;;5076193;28;20210;-76
2022/05/28 09:17:35;;;;;;;5.30;1.20;;;14.80;1.00;;;;;;5075966;28;20228;-76
2022/05/28 09:20:07;;;;;;;3.30;0.90;;;14.90;99.90;;;;;;5075764;28;20194;-76
2022/05/28 09:22:33;;;;;;;4.00;1.17;;;15.00;99.90;;;;;;5075931;28;20171;-77
2022/05/28 09:24:59;;;;;;;8.13;1.40;;;15.10;97.60;;;;;;5076784;28;20651;-75
2022/05/28 09:27:42;;;;;;;4.27;1.20;;;15.30;99.90;;;;;;5077798;28;20297;-77
2022/05/28 09:30:08;;;;;;;7.03;1.87;;;15.40;1.00;;;;;;5074638;28;20567;-77
2022/05/28 09:32:45;;;;;;;6.87;1.43;;;15.20;1.00;;;;;;5075863;28;20171;-77
2022/05/28 09:35:40;;;;;;;4.63;1.20;;;15.20;1.00;;;;;;5074877;28;20174;-76
2022/05/28 09:38:30;;;;;;;3.60;1.27;;;15.20;1.00;;;;;;5074437;28;20198;-77
2022/05/28 09:41:16;;;;;;;6.23;1.30;;;15.10;99.90;;;;;;5075529;28;20187;-77
2022/05/28 09:43:59;;;;;;;7.30;0.90;;;15.20;99.90;;;;;;5075308;28;20226;-76
2022/05/28 09:46:31;;;;;;;3.80;1.00;;;15.40;1.00;;;;;;5075291;28;20151;-75
2022/05/28 09:49:16;;;;;;;2.97;0.80;;;15.40;1.00;;;;;;5075139;28;20690;-75
2022/05/28 09:52:07;;;;;;;2.83;1.20;;;15.30;99.90;;;;;;5074986;28;20186;-73
2022/05/28 09:54:33;;;;;;;3.77;1.00;;;15.40;99.90;;;;;;5075185;28;20621;-75
2022/05/28 09:57:20;;;;;;;5.87;1.30;;;15.30;1.00;;;;;;5075282;28;20258;-74
2022/05/28 09:59:55;;;;;;;1.63;0.60;;;15.40;1.00;;;;;;5075027;28;20587;-75
2022/05/28 10:02:27;;;;;;;5.70;1.37;;;15.20;99.90;;;;;;5075549;28;20155;-74
2022/05/28 10:04:55;;;;;;;2.77;1.07;;;15.20;99.90;;;;;;5074890;28;20171;-75
2022/05/28 10:07:35;;;;;;;5.37;1.10;;;15.30;1.00;;;;;;5074808;28;20564;-74
2022/05/28 10:10:22;;;;;;;4.87;1.00;;;15.30;1.00;;;;;;5073361;28;20219;-74
2022/05/28 10:12:48;;;;;;;4.23;1.20;;;15.50;99.90;;;;;;5073527;28;20279;-75
2022/05/28 10:15:19;;;;;;;6.93;1.10;;;15.60;99.90;;;;;;5074203;28;20181;-75
2022/05/28 10:17:59;;;;;;;6.50;1.23;;;15.80;99.90;;;;;;5075990;28;20687;-75
2022/05/28 10:20:26;;;;;;;5.43;1.30;;;15.90;1.00;;;;;;5073217;28;20202;-75
2022/05/28 10:22:54;;;;;;;7.17;1.60;;;15.90;20.40;;;;;;5074508;28;20250;-74
2022/05/28 10:25:46;;;;;;;6.37;1.07;;;16.00;63.40;;;;;;5074455;28;20167;-75
2022/05/28 10:28:11;;;;;;;5.57;1.20;;;16.00;99.90;;;;;;5074671;28;20179;-74
2022/05/28 10:30:40;;;;;;;4.53;1.03;;;16.00;99.90;;;;;;5074361;28;20202;-74
2022/05/28 10:33:12;;;;;;;4.43;1.10;;;16.00;99.90;;;;;;5074352;28;20665;-74
2022/05/28 10:35:39;;;;;;;6.40;1.47;;;16.10;99.90;;;;;;5074443;28;20155;-74
2022/05/28 10:38:16;;;;;;;5.70;1.00;;;16.40;99.90;;;;;;5074113;28;20177;-74
2022/05/28 10:40:54;;;;;;;4.57;1.10;;;16.70;99.90;;;;;;5074227;28;20191;-74
2022/05/28 10:43:33;;;;;;;3.03;1.13;;;16.60;74.30;;;;;;5074313;28;20653;-74
2022/05/28 10:46:08;;;;;;;4.53;0.90;;;16.60;7.60;;;;;;5074006;28;20695;-75
2022/05/28 10:48:56;;;;;;;6.50;1.20;;;16.50;46.10;;;;;;5074151;28;20189;-75
2022/05/28 10:51:52;;;;;;;5.97;1.40;;;16.50;92.60;;;;;;5043553;28;20210;-75
2022/05/28 10:54:49;;;;;;;5.07;1.23;;;16.60;99.90;;;;;;5073885;28;20151;-75
2022/05/28 10:57:26;;;;;;;4.53;1.00;;;16.50;47.20;;;;;;5072531;28;20274;-74
2022/05/28 11:00:13;;;;;;;4.13;1.10;;;16.50;15.50;;;;;;5072456;28;20171;-74
2022/05/28 11:02:42;;;;;;;5.10;1.07;;;16.50;99.90;;;;;;5073990;28;20605;-74
2022/05/28 11:05:45;;;;;;;4.60;1.30;;;16.80;99.90;;;;;;5072331;28;20170;-74
2022/05/28 11:08:51;;;;;;;9.40;1.37;;;16.80;41.40;;;;;;5073478;28;20244;-75
2022/05/28 11:11:16;;;;;;;7.27;1.20;;;16.90;1.00;;;;;;5072141;28;20186;-75
2022/05/28 11:14:04;;;;;;;6.27;1.73;;;16.90;9.10;;;;;;5074286;28;20174;-74
2022/05/28 11:16:52;;;;;;;4.67;1.20;;;16.90;53.10;;;;;;5074087;28;20155;-74
2022/05/28 11:19:51;;;;;;;7.43;1.37;;;16.90;1.00;;;;;;5072831;28;20194;-75
2022/05/28 11:22:39;;;;;;;5.53;1.13;;;16.80;86.70;;;;;;5079312;28;20187;-74
2022/05/28 11:25:17;;;;;;;7.60;1.17;;;16.70;1.00;;;;;;5094151;28;20163;-75
2022/05/28 11:28:03;;;;;;;7.97;1.30;;;16.60;1.00;;;;;;5085267;28;20203;-74
2022/05/28 11:30:39;;;;;;;5.57;1.47;;;16.70;1.00;;;;;;5072089;28;20201;-75
2022/05/28 11:33:12;;;;;;;3.90;1.10;;;16.80;1.00;;;;;;5072734;28;20155;-75
2022/05/28 11:35:52;;;;;;;3.43;1.10;;;16.80;1.00;;;;;;5073163;28;20151;-75
2022/05/28 11:38:40;;;;;;;4.73;1.43;;;16.80;1.00;;;;;;5073346;28;20165;-75
2022/05/28 11:41:31;;;;;;;5.77;1.27;;;16.80;1.00;;;;;;5071764;28;20202;-75
2022/05/28 11:44:17;;;;;;;6.17;1.30;;;16.90;1.00;;;;;;5073150;28;20268;-76
2022/05/28 11:47:01;;;;;;;5.73;1.30;;;17.20;1.00;;;;;;5071751;28;20190;-76
2022/05/28 11:52:22;;;;;;;6.13;1.30;;;17.30;1.00;;;;;;5073089;28;20656;-77
2022/05/28 11:54:53;;;;;;;3.07;1.07;;;17.00;1.00;;;;;;5071661;28;20167;-76
2022/05/28 11:57:29;;;;;;;4.00;1.20;;;17.00;1.00;;;;;;5073128;28;20155;-76
2022/05/28 11:59:57;;;;;;;2.97;1.13;;;16.80;1.00;;;;;;5072960;28;20290;-74
2022/05/28 12:02:29;;;;;;;12.90;2.60;;;16.80;1.00;;;;;;5071638;28;20661;-74
2022/05/28 12:04:55;;;;;;;3.80;1.20;;;16.70;1.00;;;;;;5072989;28;20240;-76
2022/05/28 12:07:38;;;;;;;3.17;1.13;;;16.70;1.00;;;;;;5072996;28;20218;-76
2022/05/28 12:10:12;;;;;;;4.60;1.37;;;16.70;1.00;;;;;;5071381;28;20267;-76
2022/05/28 12:13:00;;;;;;;5.03;1.20;;;16.80;1.00;;;;;;5073037;28;20217;-75
2022/05/28 12:15:29;;;;;;;6.70;1.20;;;16.80;1.00;;;;;;5072967;28;20172;-76
2022/05/28 12:18:05;;;;;;;4.13;1.20;;;17.00;1.00;;;;;;5072774;28;20170;-76
2022/05/28 12:20:46;;;;;;;4.50;1.40;;;17.20;1.00;;;;;;5071683;28;20226;-74
2022/05/28 12:23:12;;;;;;;5.17;1.37;;;17.50;1.00;;;;;;5071439;28;20252;-75
2022/05/28 12:25:39;;;;;;;4.87;1.10;;;17.50;1.00;;;;;;5072766;28;20207;-75
2022/05/28 12:28:08;;;;;;;3.93;1.47;;;17.50;1.00;;;;;;5072590;28;20763;-76
2022/05/28 12:30:39;;;;;;;3.57;1.20;;;17.40;1.00;;;;;;5071467;28;20191;-76
2022/05/28 12:33:22;;;;;;;3.23;1.10;;;17.10;1.00;;;;;;5072636;28;20169;-75
2022/05/28 12:35:54;;;;;;;4.00;1.20;;;17.20;1.00;;;;;;5071260;28;20648;-75
2022/05/28 12:38:41;;;;;;;6.37;1.37;;;17.20;1.00;;;;;;5074188;28;20171;-77
2022/05/28 12:41:28;;;;;;;5.97;1.63;;;17.20;1.00;;;;;;5076493;28;20198;-75
2022/05/28 12:44:15;;;;;;;6.20;1.53;;;17.10;1.00;;;;;;5076750;28;20159;-76
2022/05/28 12:46:50;;;;;;;2.93;1.03;;;17.20;1.00;;;;;;5075187;28;20178;-76
2022/05/28 12:49:27;;;;;;;5.43;1.57;;;17.30;1.00;;;;;;5075196;28;20159;-76
2022/05/28 12:51:58;;;;;;;3.53;1.13;;;17.30;1.00;;;;;;5076427;28;20210;-76
2022/05/28 12:54:30;;;;;;;3.53;1.50;;;17.40;1.00;;;;;;5076377;28;20151;-76
2022/05/28 12:57:04;;;;;;;4.10;1.37;;;17.40;1.00;;;;;;5074925;28;20299;-76
2022/05/28 12:59:34;;;;;;;2.73;1.17;;;17.50;1.00;;;;;;5076139;28;20163;-76
2022/05/28 13:02:26;;;;;;;4.30;1.23;;;17.60;1.00;;;;;;5076098;28;20330;-76
2022/05/28 13:04:58;;;;;;;5.63;1.20;;;17.70;1.00;;;;;;5076477;28;20532;-77
2022/05/28 13:07:34;;;;;;;5.13;1.37;;;17.80;1.00;;;;;;5075079;28;20687;-76
2022/05/28 13:10:05;;;;;;;5.53;1.20;;;17.80;1.00;;;;;;5075906;28;20694;-74
2022/05/28 13:12:53;;;;;;;7.80;1.50;;;17.90;1.00;;;;;;5076110;28;20244;-75
2022/05/28 13:15:45;;;;;;;7.83;1.50;;;17.80;1.00;;;;;;5075984;28;20539;-74
2022/05/28 13:18:47;;;;;;;5.30;1.10;;;17.80;1.00;;;;;;5046708;28;20235;-76